sensor_id;sensor_type;location;lat;lon;timestamp;pressure;altitude;pressure_sealevel;temperature;humidity
2681;BME280;1350;42.134;24.708;2023-07-20T00:01:49;98929.03;;;26.47;85.83
2681;BME280;1350;42.134;24.708;2023-07-20T00:04:16;98944.97;;;26.50;84.88
2681;BME280;1350;42.134;24.708;2023-07-20T00:06:43;98953.25;;;26.42;84.40
2681;BME280;1350;42.134;24.708;2023-07-20T00:09:10;98961.88;;;26.45;83.18
2681;BME280;1350;42.134;24.708;2023-07-20T00:11:37;98968.78;;;26.48;81.71
2681;BME280;1350;42.134;24.708;2023-07-20T00:14:04;98956.44;;;26.45;81.73
2681;BME280;1350;42.134;24.708;2023-07-20T00:16:31;98955.72;;;26.58;80.95
2681;BME280;1350;42.134;24.708;2023-07-20T00:18:59;98936.47;;;26.60;80.73
2681;BME280;1350;42.134;24.708;2023-07-20T00:21:26;98931.34;;;26.71;80.79
2681;BME280;1350;42.134;24.708;2023-07-20T00:23:52;98914.94;;;26.86;80.00
2681;BME280;1350;42.134;24.708;2023-07-20T00:26:19;98896.53;;;26.94;79.54
2681;BME280;1350;42.134;24.708;2023-07-20T00:28:48;98889.47;;;27.00;78.97
2681;BME280;1350;42.134;24.708;2023-07-20T00:31:15;98888.63;;;26.99;77.88
2681;BME280;1350;42.134;24.708;2023-07-20T00:33:42;98885.28;;;27.04;76.37
2681;BME280;1350;42.134;24.708;2023-07-20T00:36:10;98870.88;;;27.10;74.35
2681;BME280;1350;42.134;24.708;2023-07-20T00:38:36;98870.56;;;27.26;72.91
2681;BME280;1350;42.134;24.708;2023-07-20T00:41:03;98853.44;;;27.38;71.70
2681;BME280;1350;42.134;24.708;2023-07-20T00:43:30;98839.22;;;27.49;70.25
2681;BME280;1350;42.134;24.708;2023-07-20T00:45:57;98835.47;;;27.63;68.72
2681;BME280;1350;42.134;24.708;2023-07-20T00:48:23;98825.22;;;27.72;68.01
2681;BME280;1350;42.134;24.708;2023-07-20T00:50:50;98831.31;;;27.80;67.17
2681;BME280;1350;42.134;24.708;2023-07-20T00:53:19;98848.34;;;27.95;66.30
2681;BME280;1350;42.134;24.708;2023-07-20T00:55:45;98852.34;;;27.99;65.97
2681;BME280;1350;42.134;24.708;2023-07-20T00:58:12;98856.75;;;28.00;65.75
2681;BME280;1350;42.134;24.708;2023-07-20T01:00:39;98854.66;;;28.09;65.59
2681;BME280;1350;42.134;24.708;2023-07-20T01:03:06;98847.53;;;28.15;65.11
2681;BME280;1350;42.134;24.708;2023-07-20T01:05:38;98852.34;;;28.19;64.72
2681;BME280;1350;42.134;24.708;2023-07-20T01:08:12;98853.00;;;28.21;64.34
2681;BME280;1350;42.134;24.708;2023-07-20T01:10:47;98847.75;;;28.26;64.46
2681;BME280;1350;42.134;24.708;2023-07-20T01:13:18;98850.88;;;28.30;64.33
2681;BME280;1350;42.134;24.708;2023-07-20T01:15:49;98833.69;;;28.29;64.71
2681;BME280;1350;42.134;24.708;2023-07-20T01:18:16;98828.44;;;28.28;64.15
2681;BME280;1350;42.134;24.708;2023-07-20T01:20:43;98824.84;;;28.14;64.46
2681;BME280;1350;42.134;24.708;2023-07-20T01:23:31;98819.84;;;28.18;63.99
2681;BME280;1350;42.134;24.708;2023-07-20T01:26:15;98815.44;;;28.10;64.28
2681;BME280;1350;42.134;24.708;2023-07-20T01:29:01;98815.22;;;28.12;64.12
2681;BME280;1350;42.134;24.708;2023-07-20T01:31:34;98813.13;;;28.14;64.21
2681;BME280;1350;42.134;24.708;2023-07-20T01:34:03;98803.03;;;28.14;64.22
2681;BME280;1350;42.134;24.708;2023-07-20T01:36:34;98800.75;;;28.11;64.36
2681;BME280;1350;42.134;24.708;2023-07-20T01:39:02;98804.53;;;28.17;63.74
2681;BME280;1350;42.134;24.708;2023-07-20T01:41:30;98800.31;;;28.14;63.32
2681;BME280;1350;42.134;24.708;2023-07-20T01:43:57;98809.34;;;28.15;63.18
2681;BME280;1350;42.134;24.708;2023-07-20T01:46:25;98805.34;;;28.17;63.14
2681;BME280;1350;42.134;24.708;2023-07-20T01:48:53;98805.13;;;28.32;63.05
2681;BME280;1350;42.134;24.708;2023-07-20T01:51:21;98811.44;;;28.32;63.14
2681;BME280;1350;42.134;24.708;2023-07-20T01:53:47;98812.69;;;28.23;63.24
2681;BME280;1350;42.134;24.708;2023-07-20T01:56:14;98805.13;;;28.19;63.76
2681;BME280;1350;42.134;24.708;2023-07-20T01:58:41;98806.00;;;28.26;63.52
2681;BME280;1350;42.134;24.708;2023-07-20T02:01:07;98806.41;;;28.29;64.26
2681;BME280;1350;42.134;24.708;2023-07-20T02:03:34;98811.22;;;28.34;63.77
2681;BME280;1350;42.134;24.708;2023-07-20T02:06:02;98823.38;;;28.38;63.97
2681;BME280;1350;42.134;24.708;2023-07-20T02:08:29;98824.63;;;28.42;62.98
2681;BME280;1350;42.134;24.708;2023-07-20T02:10:56;98821.09;;;28.41;63.20
2681;BME280;1350;42.134;24.708;2023-07-20T02:13:23;98819.22;;;28.35;63.25
2681;BME280;1350;42.134;24.708;2023-07-20T02:15:50;98820.88;;;28.23;63.41
2681;BME280;1350;42.134;24.708;2023-07-20T02:18:17;98821.72;;;28.30;63.27
2681;BME280;1350;42.134;24.708;2023-07-20T02:20:43;98824.63;;;28.42;62.88
2681;BME280;1350;42.134;24.708;2023-07-20T02:23:12;98819.59;;;28.39;62.70
2681;BME280;1350;42.134;24.708;2023-07-20T02:25:39;98824.03;;;28.40;62.91
2681;BME280;1350;42.134;24.708;2023-07-20T02:28:07;98819.81;;;28.37;63.41
2681;BME280;1350;42.134;24.708;2023-07-20T02:30:36;98820.03;;;28.36;63.16
2681;BME280;1350;42.134;24.708;2023-07-20T02:33:03;98820.25;;;28.41;63.23
2681;BME280;1350;42.134;24.708;2023-07-20T02:35:31;98815.63;;;28.48;63.60
2681;BME280;1350;42.134;24.708;2023-07-20T02:37:58;98807.25;;;28.49;64.09
2681;BME280;1350;42.134;24.708;2023-07-20T02:40:26;98813.31;;;28.38;64.12
2681;BME280;1350;42.134;24.708;2023-07-20T02:42:53;98807.47;;;28.15;64.84
2681;BME280;1350;42.134;24.708;2023-07-20T02:45:19;98818.97;;;27.91;65.73
2681;BME280;1350;42.134;24.708;2023-07-20T02:47:46;98819.72;;;27.39;68.13
2681;BME280;1350;42.134;24.708;2023-07-20T02:50:13;98819.69;;;27.33;68.98
2681;BME280;1350;42.134;24.708;2023-07-20T02:52:40;98818.22;;;27.30;68.68
2681;BME280;1350;42.134;24.708;2023-07-20T02:55:07;98821.75;;;27.31;68.54
2681;BME280;1350;42.134;24.708;2023-07-20T02:57:35;98813.81;;;27.36;68.92
2681;BME280;1350;42.134;24.708;2023-07-20T03:00:02;98807.75;;;27.34;69.83
2681;BME280;1350;42.134;24.708;2023-07-20T03:02:31;98810.28;;;27.35;69.97
2681;BME280;1350;42.134;24.708;2023-07-20T03:04:58;98802.31;;;27.40;70.29
2681;BME280;1350;42.134;24.708;2023-07-20T03:07:26;98799.81;;;27.45;70.41
2681;BME280;1350;42.134;24.708;2023-07-20T03:09:53;98802.13;;;27.35;71.90
2681;BME280;1350;42.134;24.708;2023-07-20T03:12:20;98804.63;;;27.37;71.41
2681;BME280;1350;42.134;24.708;2023-07-20T03:14:49;98809.19;;;27.30;71.18
2681;BME280;1350;42.134;24.708;2023-07-20T03:17:15;98802.72;;;27.37;70.73
2681;BME280;1350;42.134;24.708;2023-07-20T03:19:42;98805.84;;;27.34;70.54
2681;BME280;1350;42.134;24.708;2023-07-20T03:22:09;98798.16;;;27.44;70.43
2681;BME280;1350;42.134;24.708;2023-07-20T03:24:35;98797.72;;;27.54;70.27
2681;BME280;1350;42.134;24.708;2023-07-20T03:27:02;98802.16;;;27.61;70.90
2681;BME280;1350;42.134;24.708;2023-07-20T03:29:31;98797.13;;;27.65;71.50
2681;BME280;1350;42.134;24.708;2023-07-20T03:31:59;98797.72;;;27.47;71.87
2681;BME280;1350;42.134;24.708;2023-07-20T03:34:26;98801.06;;;27.49;72.04
2681;BME280;1350;42.134;24.708;2023-07-20T03:36:53;98795.84;;;27.41;72.13
2681;BME280;1350;42.134;24.708;2023-07-20T03:39:20;98784.31;;;27.52;71.84
2681;BME280;1350;42.134;24.708;2023-07-20T03:41:46;98777.44;;;27.63;71.51
2681;BME280;1350;42.134;24.708;2023-07-20T03:44:13;98781.84;;;27.70;71.16
2681;BME280;1350;42.134;24.708;2023-07-20T03:46:40;98782.25;;;27.74;71.70
2681;BME280;1350;42.134;24.708;2023-07-20T03:49:08;98786.28;;;27.91;70.90
2681;BME280;1350;42.134;24.708;2023-07-20T03:51:35;98787.34;;;28.03;70.92
2681;BME280;1350;42.134;24.708;2023-07-20T03:54:02;98787.13;;;28.05;70.51
2681;BME280;1350;42.134;24.708;2023-07-20T03:56:29;98778.06;;;28.17;70.59
2681;BME280;1350;42.134;24.708;2023-07-20T03:58:59;98786.91;;;28.26;70.56
2681;BME280;1350;42.134;24.708;2023-07-20T04:01:26;98789.41;;;28.21;71.12
2681;BME280;1350;42.134;24.708;2023-07-20T04:03:53;98786.25;;;28.37;71.97
2681;BME280;1350;42.134;24.708;2023-07-20T04:06:21;98786.47;;;28.55;72.14
2681;BME280;1350;42.134;24.708;2023-07-20T04:08:48;98792.94;;;28.60;72.13
2681;BME280;1350;42.134;24.708;2023-07-20T04:11:14;98792.06;;;28.66;72.98
2681;BME280;1350;42.134;24.708;2023-07-20T04:13:41;98798.81;;;28.57;71.11
2681;BME280;1350;42.134;24.708;2023-07-20T04:16:08;98803.84;;;28.73;71.03
2681;BME280;1350;42.134;24.708;2023-07-20T04:18:34;98803.63;;;28.75;70.43
2681;BME280;1350;42.134;24.708;2023-07-20T04:21:01;98802.09;;;28.85;67.85
2681;BME280;1350;42.134;24.708;2023-07-20T04:23:29;98809.63;;;29.03;64.85
2681;BME280;1350;42.134;24.708;2023-07-20T04:25:56;98805.63;;;29.05;65.15
2681;BME280;1350;42.134;24.708;2023-07-20T04:28:23;98801.47;;;29.40;64.48
2681;BME280;1350;42.134;24.708;2023-07-20T04:30:50;98810.78;;;29.71;62.94
2681;BME280;1350;42.134;24.708;2023-07-20T04:33:17;98803.22;;;29.97;64.15
2681;BME280;1350;42.134;24.708;2023-07-20T04:35:48;98816.28;;;29.95;65.73
2681;BME280;1350;42.134;24.708;2023-07-20T04:38:16;98813.09;;;29.74;66.46
2681;BME280;1350;42.134;24.708;2023-07-20T04:40:45;98818.16;;;29.70;65.45
2681;BME280;1350;42.134;24.708;2023-07-20T04:43:12;98815.38;;;29.77;63.97
2681;BME280;1350;42.134;24.708;2023-07-20T04:45:39;98816.16;;;30.08;63.67
2681;BME280;1350;42.134;24.708;2023-07-20T04:48:09;98814.75;;;30.30;60.72
2681;BME280;1350;42.134;24.708;2023-07-20T04:50:37;98823.09;;;30.60;59.78
2681;BME280;1350;42.134;24.708;2023-07-20T04:53:03;98821.56;;;30.88;58.63
2681;BME280;1350;42.134;24.708;2023-07-20T04:55:30;98828.31;;;31.22;57.50
2681;BME280;1350;42.134;24.708;2023-07-20T04:58:00;98829.22;;;31.34;58.05
2681;BME280;1350;42.134;24.708;2023-07-20T05:00:27;98823.66;;;31.41;60.70
2681;BME280;1350;42.134;24.708;2023-07-20T05:02:53;98823.59;;;31.47;61.15
2681;BME280;1350;42.134;24.708;2023-07-20T05:05:20;98831.16;;;31.34;59.84
2681;BME280;1350;42.134;24.708;2023-07-20T05:07:47;98835.91;;;31.20;59.78
2681;BME280;1350;42.134;24.708;2023-07-20T05:10:14;98835.41;;;30.93;60.22
2681;BME280;1350;42.134;24.708;2023-07-20T05:12:41;98832.06;;;30.91;59.40
2681;BME280;1350;42.134;24.708;2023-07-20T05:15:10;98831.59;;;30.94;59.25
2681;BME280;1350;42.134;24.708;2023-07-20T05:17:36;98824.25;;;30.70;60.00
2681;BME280;1350;42.134;24.708;2023-07-20T05:20:05;98826.13;;;30.94;58.35
2681;BME280;1350;42.134;24.708;2023-07-20T05:22:35;98831.50;;;31.37;57.80
2681;BME280;1350;42.134;24.708;2023-07-20T05:25:02;98823.41;;;31.90;56.08
2681;BME280;1350;42.134;24.708;2023-07-20T05:27:29;98823.88;;;32.39;54.84
2681;BME280;1350;42.134;24.708;2023-07-20T05:29:55;98822.78;;;32.63;53.33
2681;BME280;1350;42.134;24.708;2023-07-20T05:32:23;98817.53;;;32.62;53.74
2681;BME280;1350;42.134;24.708;2023-07-20T05:34:51;98818.03;;;32.59;52.87
2681;BME280;1350;42.134;24.708;2023-07-20T05:37:18;98812.75;;;32.81;53.19
2681;BME280;1350;42.134;24.708;2023-07-20T05:39:45;98819.44;;;32.96;52.75
2681;BME280;1350;42.134;24.708;2023-07-20T05:42:11;98827.00;;;33.40;51.21
2681;BME280;1350;42.134;24.708;2023-07-20T05:44:39;98812.88;;;33.48;50.37
2681;BME280;1350;42.134;24.708;2023-07-20T05:47:06;98815.50;;;33.04;51.79
2681;BME280;1350;42.134;24.708;2023-07-20T05:49:35;98809.13;;;33.15;51.57
2681;BME280;1350;42.134;24.708;2023-07-20T05:52:02;98808.22;;;32.63;52.21
2681;BME280;1350;42.134;24.708;2023-07-20T05:54:29;98802.84;;;32.91;52.20
2681;BME280;1350;42.134;24.708;2023-07-20T05:56:56;98797.63;;;33.57;50.81
2681;BME280;1350;42.134;24.708;2023-07-20T05:59:23;98806.00;;;33.62;50.06
2681;BME280;1350;42.134;24.708;2023-07-20T06:01:50;98793.66;;;34.26;48.69
2681;BME280;1350;42.134;24.708;2023-07-20T06:04:17;98789.97;;;34.37;48.69
2681;BME280;1350;42.134;24.708;2023-07-20T06:06:45;98787.31;;;34.59;48.48
2681;BME280;1350;42.134;24.708;2023-07-20T06:09:13;98784.63;;;35.23;47.96
2681;BME280;1350;42.134;24.708;2023-07-20T06:11:40;98780.59;;;35.09;47.05
2681;BME280;1350;42.134;24.708;2023-07-20T06:14:07;98783.34;;;34.88;47.80
2681;BME280;1350;42.134;24.708;2023-07-20T06:16:33;98778.75;;;35.15;47.66
2681;BME280;1350;42.134;24.708;2023-07-20T06:19:00;98775.22;;;35.41;46.15
2681;BME280;1350;42.134;24.708;2023-07-20T06:21:27;98780.97;;;35.61;46.06
2681;BME280;1350;42.134;24.708;2023-07-20T06:23:55;98772.94;;;34.73;45.90
2681;BME280;1350;42.134;24.708;2023-07-20T06:26:22;98773.06;;;34.45;46.72
2681;BME280;1350;42.134;24.708;2023-07-20T06:28:49;98769.56;;;34.16;46.81
2681;BME280;1350;42.134;24.708;2023-07-20T06:31:16;98767.19;;;34.96;45.87
2681;BME280;1350;42.134;24.708;2023-07-20T06:33:43;98768.66;;;35.47;44.59
2681;BME280;1350;42.134;24.708;2023-07-20T06:36:10;98771.53;;;35.84;44.22
2681;BME280;1350;42.134;24.708;2023-07-20T06:38:37;98769.22;;;36.02;43.57
2681;BME280;1350;42.134;24.708;2023-07-20T06:41:05;98769.25;;;36.75;42.32
2681;BME280;1350;42.134;24.708;2023-07-20T06:43:32;98769.22;;;36.70;42.72
2681;BME280;1350;42.134;24.708;2023-07-20T06:45:59;98762.34;;;36.36;42.41
2681;BME280;1350;42.134;24.708;2023-07-20T06:48:25;98764.50;;;36.29;42.73
2681;BME280;1350;42.134;24.708;2023-07-20T06:50:52;98768.00;;;36.98;42.17
2681;BME280;1350;42.134;24.708;2023-07-20T06:53:19;98770.63;;;37.30;41.39
2681;BME280;1350;42.134;24.708;2023-07-20T06:55:46;98768.44;;;37.32;41.07
2681;BME280;1350;42.134;24.708;2023-07-20T06:58:14;98777.38;;;36.97;41.38
2681;BME280;1350;42.134;24.708;2023-07-20T07:00:41;98770.47;;;36.94;41.76
2681;BME280;1350;42.134;24.708;2023-07-20T07:03:08;98769.66;;;36.99;41.41
2681;BME280;1350;42.134;24.708;2023-07-20T07:05:36;98776.72;;;37.27;40.92
2681;BME280;1350;42.134;24.708;2023-07-20T07:08:04;98766.63;;;37.77;40.78
2681;BME280;1350;42.134;24.708;2023-07-20T07:10:31;98770.25;;;38.33;40.84
2681;BME280;1350;42.134;24.708;2023-07-20T07:12:58;98760.84;;;38.39;39.30
2681;BME280;1350;42.134;24.708;2023-07-20T07:15:27;98760.53;;;37.80;39.58
2681;BME280;1350;42.134;24.708;2023-07-20T07:17:54;98765.81;;;37.87;39.34
2681;BME280;1350;42.134;24.708;2023-07-20T07:20:21;98751.97;;;38.07;39.21
2681;BME280;1350;42.134;24.708;2023-07-20T07:22:50;98752.22;;;37.85;38.86
2681;BME280;1350;42.134;24.708;2023-07-20T07:25:18;98758.41;;;36.69;39.46
2681;BME280;1350;42.134;24.708;2023-07-20T07:27:45;98760.78;;;36.50;40.33
2681;BME280;1350;42.134;24.708;2023-07-20T07:30:12;98758.16;;;36.70;40.21
2681;BME280;1350;42.134;24.708;2023-07-20T07:32:41;98765.41;;;36.81;39.59
2681;BME280;1350;42.134;24.708;2023-07-20T07:35:08;98760.75;;;37.59;39.74
2681;BME280;1350;42.134;24.708;2023-07-20T07:37:34;98755.84;;;37.86;39.01
2681;BME280;1350;42.134;24.708;2023-07-20T07:40:02;98754.00;;;36.73;40.05
2681;BME280;1350;42.134;24.708;2023-07-20T07:42:31;98739.84;;;36.59;40.85
2681;BME280;1350;42.134;24.708;2023-07-20T07:44:58;98741.19;;;37.03;40.14
2681;BME280;1350;42.134;24.708;2023-07-20T07:47:24;98743.53;;;37.32;39.24
2681;BME280;1350;42.134;24.708;2023-07-20T07:49:52;98746.69;;;37.85;39.20
2681;BME280;1350;42.134;24.708;2023-07-20T07:52:19;98744.47;;;38.32;38.10
2681;BME280;1350;42.134;24.708;2023-07-20T07:54:46;98743.22;;;37.28;39.10
2681;BME280;1350;42.134;24.708;2023-07-20T07:57:13;98753.03;;;37.66;38.62
2681;BME280;1350;42.134;24.708;2023-07-20T07:59:40;98744.09;;;37.44;38.68
2681;BME280;1350;42.134;24.708;2023-07-20T08:02:07;98744.22;;;38.19;37.83
2681;BME280;1350;42.134;24.708;2023-07-20T08:04:33;98742.72;;;38.87;37.74
2681;BME280;1350;42.134;24.708;2023-07-20T08:07:03;98746.97;;;37.89;38.33
2681;BME280;1350;42.134;24.708;2023-07-20T08:09:30;98752.97;;;37.46;39.18
2681;BME280;1350;42.134;24.708;2023-07-20T08:11:58;98744.72;;;37.66;39.10
2681;BME280;1350;42.134;24.708;2023-07-20T08:14:24;98743.63;;;38.42;38.32
2681;BME280;1350;42.134;24.708;2023-07-20T08:16:51;98744.84;;;39.15;37.99
2681;BME280;1350;42.134;24.708;2023-07-20T08:19:19;98745.66;;;39.20;37.93
2681;BME280;1350;42.134;24.708;2023-07-20T08:21:46;98748.19;;;39.70;37.16
2681;BME280;1350;42.134;24.708;2023-07-20T08:24:14;98743.06;;;38.50;37.59
2681;BME280;1350;42.134;24.708;2023-07-20T08:26:41;98743.56;;;38.77;37.51
2681;BME280;1350;42.134;24.708;2023-07-20T08:29:08;98749.78;;;39.28;36.92
2681;BME280;1350;42.134;24.708;2023-07-20T08:31:35;98750.75;;;40.00;36.58
2681;BME280;1350;42.134;24.708;2023-07-20T08:34:01;98755.72;;;40.03;36.22
2681;BME280;1350;42.134;24.708;2023-07-20T08:36:28;98752.56;;;39.28;37.16
2681;BME280;1350;42.134;24.708;2023-07-20T08:38:56;98754.31;;;39.09;37.10
2681;BME280;1350;42.134;24.708;2023-07-20T08:41:24;98757.50;;;39.46;37.13
2681;BME280;1350;42.134;24.708;2023-07-20T08:43:52;98751.59;;;40.01;36.37
2681;BME280;1350;42.134;24.708;2023-07-20T08:46:22;98753.06;;;39.88;36.36
2681;BME280;1350;42.134;24.708;2023-07-20T08:48:50;98746.47;;;40.13;36.38
2681;BME280;1350;42.134;24.708;2023-07-20T08:51:17;98738.81;;;38.88;37.42
2681;BME280;1350;42.134;24.708;2023-07-20T08:53:45;98742.00;;;38.21;38.17
2681;BME280;1350;42.134;24.708;2023-07-20T08:56:13;98737.44;;;38.90;37.85
2681;BME280;1350;42.134;24.708;2023-07-20T08:58:43;98728.34;;;38.69;37.66
2681;BME280;1350;42.134;24.708;2023-07-20T09:01:11;98726.97;;;39.36;37.32
2681;BME280;1350;42.134;24.708;2023-07-20T09:03:38;98727.19;;;38.86;37.38
2681;BME280;1350;42.134;24.708;2023-07-20T09:06:05;98723.13;;;39.32;37.51
2681;BME280;1350;42.134;24.708;2023-07-20T09:08:31;98713.06;;;39.41;37.37
2681;BME280;1350;42.134;24.708;2023-07-20T09:10:58;98699.22;;;38.72;37.65
2681;BME280;1350;42.134;24.708;2023-07-20T09:13:25;98700.69;;;38.29;38.10
2681;BME280;1350;42.134;24.708;2023-07-20T09:15:54;98702.34;;;39.24;37.78
2681;BME280;1350;42.134;24.708;2023-07-20T09:18:25;98703.16;;;39.73;37.58
2681;BME280;1350;42.134;24.708;2023-07-20T09:20:52;98702.28;;;40.11;36.49
2681;BME280;1350;42.134;24.708;2023-07-20T09:23:19;98698.47;;;39.69;36.08
2681;BME280;1350;42.134;24.708;2023-07-20T09:25:47;98699.53;;;39.29;37.53
2681;BME280;1350;42.134;24.708;2023-07-20T09:28:16;98678.94;;;38.82;37.59
2681;BME280;1350;42.134;24.708;2023-07-20T09:30:43;98671.06;;;38.10;38.10
2681;BME280;1350;42.134;24.708;2023-07-20T09:33:21;98681.88;;;37.81;38.35
2681;BME280;1350;42.134;24.708;2023-07-20T09:35:48;98676.06;;;38.18;38.59
2681;BME280;1350;42.134;24.708;2023-07-20T09:38:15;98673.81;;;38.35;38.27
2681;BME280;1350;42.134;24.708;2023-07-20T09:40:42;98663.53;;;38.35;38.25
2681;BME280;1350;42.134;24.708;2023-07-20T09:43:09;98669.13;;;38.00;38.40
2681;BME280;1350;42.134;24.708;2023-07-20T09:45:39;98667.19;;;38.21;37.57
2681;BME280;1350;42.134;24.708;2023-07-20T09:48:08;98658.78;;;38.46;37.81
2681;BME280;1350;42.134;24.708;2023-07-20T09:50:39;98668.81;;;38.42;37.45
2681;BME280;1350;42.134;24.708;2023-07-20T09:53:09;98660.75;;;38.40;37.77
2681;BME280;1350;42.134;24.708;2023-07-20T09:55:39;98662.47;;;38.31;37.90
2681;BME280;1350;42.134;24.708;2023-07-20T09:58:08;98651.94;;;38.97;36.23
2681;BME280;1350;42.134;24.708;2023-07-20T10:00:36;98645.47;;;38.63;36.67
2681;BME280;1350;42.134;24.708;2023-07-20T10:03:04;98635.38;;;38.87;36.85
2681;BME280;1350;42.134;24.708;2023-07-20T10:05:32;98636.28;;;39.21;36.05
2681;BME280;1350;42.134;24.708;2023-07-20T10:08:02;98643.97;;;39.39;36.11
2681;BME280;1350;42.134;24.708;2023-07-20T10:10:33;98636.44;;;39.45;35.76
2681;BME280;1350;42.134;24.708;2023-07-20T10:13:01;98640.63;;;39.42;36.11
2681;BME280;1350;42.134;24.708;2023-07-20T10:15:32;98626.78;;;39.32;35.28
2681;BME280;1350;42.134;24.708;2023-07-20T10:18:04;98619.03;;;39.29;35.50
2681;BME280;1350;42.134;24.708;2023-07-20T10:20:36;98612.47;;;39.15;36.08
2681;BME280;1350;42.134;24.708;2023-07-20T10:23:08;98605.03;;;38.52;36.37
2681;BME280;1350;42.134;24.708;2023-07-20T10:25:35;98600.09;;;38.93;36.42
2681;BME280;1350;42.134;24.708;2023-07-20T10:28:04;98605.88;;;39.06;36.10
2681;BME280;1350;42.134;24.708;2023-07-20T10:30:32;98602.63;;;39.33;35.37
2681;BME280;1350;42.134;24.708;2023-07-20T10:33:00;98606.78;;;39.35;35.26
2681;BME280;1350;42.134;24.708;2023-07-20T10:35:28;98591.69;;;38.59;35.93
2681;BME280;1350;42.134;24.708;2023-07-20T10:37:55;98594.38;;;38.79;35.93
2681;BME280;1350;42.134;24.708;2023-07-20T10:40:30;98591.69;;;39.85;35.63
2681;BME280;1350;42.134;24.708;2023-07-20T10:42:59;98594.75;;;40.36;34.76
2681;BME280;1350;42.134;24.708;2023-07-20T10:45:36;98594.47;;;40.37;34.16
2681;BME280;1350;42.134;24.708;2023-07-20T10:48:03;98594.00;;;40.30;33.65
2681;BME280;1350;42.134;24.708;2023-07-20T10:50:32;98588.50;;;40.20;33.98
2681;BME280;1350;42.134;24.708;2023-07-20T10:53:10;98591.00;;;40.21;34.33
2681;BME280;1350;42.134;24.708;2023-07-20T10:55:39;98581.66;;;40.12;34.06
2681;BME280;1350;42.134;24.708;2023-07-20T10:58:07;98576.31;;;40.63;33.47
2681;BME280;1350;42.134;24.708;2023-07-20T11:00:34;98566.00;;;40.87;33.95
2681;BME280;1350;42.134;24.708;2023-07-20T11:03:01;98565.09;;;40.50;34.10
2681;BME280;1350;42.134;24.708;2023-07-20T11:05:32;98564.25;;;40.02;34.35
2681;BME280;1350;42.134;24.708;2023-07-20T11:08:00;98569.28;;;40.23;34.53
2681;BME280;1350;42.134;24.708;2023-07-20T11:10:26;98561.41;;;40.78;33.38
2681;BME280;1350;42.134;24.708;2023-07-20T11:13:20;98567.66;;;41.25;33.39
2681;BME280;1350;42.134;24.708;2023-07-20T11:16:01;98568.31;;;41.36;32.35
2681;BME280;1350;42.134;24.708;2023-07-20T11:18:29;98564.84;;;41.44;32.34
2681;BME280;1350;42.134;24.708;2023-07-20T11:20:57;98567.78;;;41.34;33.19
2681;BME280;1350;42.134;24.708;2023-07-20T11:23:24;98565.00;;;40.97;33.29
2681;BME280;1350;42.134;24.708;2023-07-20T11:25:51;98561.84;;;40.85;33.02
2681;BME280;1350;42.134;24.708;2023-07-20T11:28:18;98557.94;;;40.20;32.95
2681;BME280;1350;42.134;24.708;2023-07-20T11:30:52;98548.44;;;40.26;33.80
2681;BME280;1350;42.134;24.708;2023-07-20T11:33:19;98539.31;;;40.44;33.40
2681;BME280;1350;42.134;24.708;2023-07-20T11:35:46;98537.34;;;40.68;33.86
2681;BME280;1350;42.134;24.708;2023-07-20T11:38:13;98528.88;;;40.55;33.86
2681;BME280;1350;42.134;24.708;2023-07-20T11:40:42;98530.03;;;40.72;33.58
2681;BME280;1350;42.134;24.708;2023-07-20T11:43:11;98523.88;;;40.94;33.15
2681;BME280;1350;42.134;24.708;2023-07-20T11:45:38;98528.31;;;40.95;32.96
2681;BME280;1350;42.134;24.708;2023-07-20T11:48:06;98534.63;;;41.00;33.30
2681;BME280;1350;42.134;24.708;2023-07-20T11:50:38;98528.75;;;40.83;33.06
2681;BME280;1350;42.134;24.708;2023-07-20T11:53:06;98528.72;;;40.65;33.63
2681;BME280;1350;42.134;24.708;2023-07-20T11:55:33;98527.69;;;40.61;33.01
2681;BME280;1350;42.134;24.708;2023-07-20T11:58:03;98524.16;;;40.92;32.88
2681;BME280;1350;42.134;24.708;2023-07-20T12:00:30;98527.44;;;40.81;32.58
2681;BME280;1350;42.134;24.708;2023-07-20T12:02:57;98518.97;;;40.67;33.26
2681;BME280;1350;42.134;24.708;2023-07-20T12:05:25;98520.47;;;40.41;34.07
2681;BME280;1350;42.134;24.708;2023-07-20T12:07:53;98513.72;;;40.84;33.29
2681;BME280;1350;42.134;24.708;2023-07-20T12:10:24;98510.56;;;40.72;33.34
2681;BME280;1350;42.134;24.708;2023-07-20T12:12:52;98514.44;;;40.53;33.30
2681;BME280;1350;42.134;24.708;2023-07-20T12:15:21;98491.03;;;40.77;32.83
2681;BME280;1350;42.134;24.708;2023-07-20T12:17:50;98489.09;;;40.78;32.86
2681;BME280;1350;42.134;24.708;2023-07-20T12:20:29;98486.69;;;41.03;32.99
2681;BME280;1350;42.134;24.708;2023-07-20T12:22:58;98476.19;;;40.63;33.22
2681;BME280;1350;42.134;24.708;2023-07-20T12:25:37;98462.00;;;40.04;33.51
2681;BME280;1350;42.134;24.708;2023-07-20T12:28:06;98457.47;;;40.32;33.31
2681;BME280;1350;42.134;24.708;2023-07-20T12:30:33;98457.19;;;40.33;33.12
2681;BME280;1350;42.134;24.708;2023-07-20T12:32:59;98454.88;;;40.16;33.74
2681;BME280;1350;42.134;24.708;2023-07-20T12:35:28;98441.84;;;40.36;32.47
2681;BME280;1350;42.134;24.708;2023-07-20T12:37:55;98438.03;;;40.50;33.27
2681;BME280;1350;42.134;24.708;2023-07-20T12:40:22;98440.31;;;40.62;32.86
2681;BME280;1350;42.134;24.708;2023-07-20T12:42:49;98438.25;;;40.72;33.57
2681;BME280;1350;42.134;24.708;2023-07-20T12:45:15;98432.69;;;40.72;33.86
2681;BME280;1350;42.134;24.708;2023-07-20T12:47:42;98434.03;;;40.75;33.54
2681;BME280;1350;42.134;24.708;2023-07-20T12:50:09;98438.47;;;40.76;33.89
2681;BME280;1350;42.134;24.708;2023-07-20T12:52:38;98433.84;;;40.66;34.03
2681;BME280;1350;42.134;24.708;2023-07-20T12:55:07;98447.41;;;40.73;34.23
2681;BME280;1350;42.134;24.708;2023-07-20T12:57:34;98434.00;;;40.19;34.43
2681;BME280;1350;42.134;24.708;2023-07-20T13:00:01;98446.72;;;40.01;34.24
2681;BME280;1350;42.134;24.708;2023-07-20T13:02:29;98450.09;;;39.75;34.54
2681;BME280;1350;42.134;24.708;2023-07-20T13:04:56;98454.91;;;39.93;34.05
2681;BME280;1350;42.134;24.708;2023-07-20T13:07:29;98451.34;;;39.87;34.47
2681;BME280;1350;42.134;24.708;2023-07-20T13:09:59;98459.28;;;39.99;34.44
2681;BME280;1350;42.134;24.708;2023-07-20T13:12:26;98460.88;;;40.23;34.87
2681;BME280;1350;42.134;24.708;2023-07-20T13:14:53;98463.25;;;40.35;33.66